sensor_id;sensor_type;location;lat;lon;timestamp;temperature;humidity
15241;DHT22;7723;52.170;9.978;2023-03-21T00:01:51;7.90;99.90
15241;DHT22;7723;52.170;9.978;2023-03-21T00:04:19;8.00;99.90
15241;DHT22;7723;52.170;9.978;2023-03-21T00:06:46;7.90;99.90
15241;DHT22;7723;52.170;9.978;2023-03-21T00:09:15;7.90;99.90
15241;DHT22;7723;52.170;9.978;2023-03-21T00:11:42;8.00;99.90
15241;DHT22;7723;52.170;9.978;2023-03-21T00:14:09;7.90;99.90
15241;DHT22;7723;52.170;9.978;2023-03-21T00:16:39;8.00;99.90
15241;DHT22;7723;52.170;9.978;2023-03-21T00:19:06;7.90;99.90
15241;DHT22;7723;52.170;9.978;2023-03-21T00:21:34;7.90;99.90
15241;DHT22;7723;52.170;9.978;2023-03-21T00:24:03;7.90;99.90
15241;DHT22;7723;52.170;9.978;2023-03-21T00:26:32;7.90;99.90
15241;DHT22;7723;52.170;9.978;2023-03-21T00:29:00;7.90;99.90
15241;DHT22;7723;52.170;9.978;2023-03-21T00:31:27;7.90;99.90
15241;DHT22;7723;52.170;9.978;2023-03-21T00:33:54;7.90;99.90
15241;DHT22;7723;52.170;9.978;2023-03-21T00:36:22;7.90;99.90
15241;DHT22;7723;52.170;9.978;2023-03-21T00:38:50;7.90;99.90
15241;DHT22;7723;52.170;9.978;2023-03-21T00:41:17;7.90;99.90
15241;DHT22;7723;52.170;9.978;2023-03-21T00:43:46;7.90;99.90
15241;DHT22;7723;52.170;9.978;2023-03-21T00:46:13;7.30;99.90
15241;DHT22;7723;52.170;9.978;2023-03-21T00:48:40;7.90;99.90
15241;DHT22;7723;52.170;9.978;2023-03-21T00:51:11;7.90;99.90
15241;DHT22;7723;52.170;9.978;2023-03-21T00:53:40;8.00;99.90
15241;DHT22;7723;52.170;9.978;2023-03-21T00:56:08;8.00;99.90
15241;DHT22;7723;52.170;9.978;2023-03-21T00:58:35;8.00;99.90
15241;DHT22;7723;52.170;9.978;2023-03-21T01:01:04;8.00;99.90
15241;DHT22;7723;52.170;9.978;2023-03-21T01:03:34;8.00;99.90
15241;DHT22;7723;52.170;9.978;2023-03-21T01:06:08;8.00;99.90
15241;DHT22;7723;52.170;9.978;2023-03-21T01:08:39;8.00;99.90
15241;DHT22;7723;52.170;9.978;2023-03-21T01:11:09;8.10;99.90
15241;DHT22;7723;52.170;9.978;2023-03-21T01:13:37;8.00;99.90
15241;DHT22;7723;52.170;9.978;2023-03-21T01:16:07;8.00;99.90
15241;DHT22;7723;52.170;9.978;2023-03-21T01:18:36;8.00;99.90
15241;DHT22;7723;52.170;9.978;2023-03-21T01:21:07;8.10;99.90
15241;DHT22;7723;52.170;9.978;2023-03-21T01:23:34;8.00;99.90
15241;DHT22;7723;52.170;9.978;2023-03-21T01:26:01;8.10;99.90
15241;DHT22;7723;52.170;9.978;2023-03-21T01:28:29;8.00;99.90
15241;DHT22;7723;52.170;9.978;2023-03-21T01:30:56;8.10;99.90
15241;DHT22;7723;52.170;9.978;2023-03-21T01:33:28;8.00;99.90
15241;DHT22;7723;52.170;9.978;2023-03-21T01:35:55;8.10;99.90
15241;DHT22;7723;52.170;9.978;2023-03-21T01:38:23;8.00;99.90
15241;DHT22;7723;52.170;9.978;2023-03-21T01:40:50;8.00;99.90
15241;DHT22;7723;52.170;9.978;2023-03-21T01:43:23;8.10;99.90
15241;DHT22;7723;52.170;9.978;2023-03-21T01:46:19;8.00;99.90
15241;DHT22;7723;52.170;9.978;2023-03-21T01:48:52;8.00;99.90
15241;DHT22;7723;52.170;9.978;2023-03-21T01:51:21;8.00;99.90
15241;DHT22;7723;52.170;9.978;2023-03-21T01:53:49;8.00;99.90
15241;DHT22;7723;52.170;9.978;2023-03-21T01:56:21;8.10;99.90
15241;DHT22;7723;52.170;9.978;2023-03-21T01:58:51;8.10;99.90
15241;DHT22;7723;52.170;9.978;2023-03-21T02:01:20;8.10;99.90
15241;DHT22;7723;52.170;9.978;2023-03-21T02:03:51;8.10;99.90
15241;DHT22;7723;52.170;9.978;2023-03-21T02:06:24;8.10;99.90
15241;DHT22;7723;52.170;9.978;2023-03-21T02:09:00;7.60;99.90
15241;DHT22;7723;52.170;9.978;2023-03-21T02:11:29;8.20;99.90
15241;DHT22;7723;52.170;9.978;2023-03-21T02:13:58;8.20;99.90
15241;DHT22;7723;52.170;9.978;2023-03-21T02:16:33;8.20;99.90
15241;DHT22;7723;52.170;9.978;2023-03-21T02:19:18;8.10;99.90
15241;DHT22;7723;52.170;9.978;2023-03-21T02:22:10;8.20;99.90
15241;DHT22;7723;52.170;9.978;2023-03-21T02:25:19;8.20;99.90
15241;DHT22;7723;52.170;9.978;2023-03-21T02:27:54;8.20;99.90
15241;DHT22;7723;52.170;9.978;2023-03-21T02:30:42;8.20;99.90
15241;DHT22;7723;52.170;9.978;2023-03-21T02:33:40;8.20;99.90
15241;DHT22;7723;52.170;9.978;2023-03-21T02:36:27;8.10;99.90
15241;DHT22;7723;52.170;9.978;2023-03-21T02:39:09;8.20;99.90
15241;DHT22;7723;52.170;9.978;2023-03-21T02:41:45;8.10;99.90
15241;DHT22;7723;52.170;9.978;2023-03-21T02:44:18;8.20;99.90
15241;DHT22;7723;52.170;9.978;2023-03-21T02:46:51;8.20;99.90
15241;DHT22;7723;52.170;9.978;2023-03-21T02:49:24;8.20;99.90
15241;DHT22;7723;52.170;9.978;2023-03-21T02:51:55;8.20;99.90
15241;DHT22;7723;52.170;9.978;2023-03-21T02:54:25;8.20;99.90
15241;DHT22;7723;52.170;9.978;2023-03-21T02:56:54;8.20;99.90
15241;DHT22;7723;52.170;9.978;2023-03-21T02:59:24;8.20;99.90
15241;DHT22;7723;52.170;9.978;2023-03-21T03:01:54;8.20;99.90
15241;DHT22;7723;52.170;9.978;2023-03-21T03:04:24;8.20;99.90
15241;DHT22;7723;52.170;9.978;2023-03-21T03:07:04;8.20;99.90
15241;DHT22;7723;52.170;9.978;2023-03-21T03:09:43;8.20;99.90
15241;DHT22;7723;52.170;9.978;2023-03-21T03:12:18;8.30;99.90
15241;DHT22;7723;52.170;9.978;2023-03-21T03:14:52;8.30;99.90
15241;DHT22;7723;52.170;9.978;2023-03-21T03:17:34;8.20;99.90
15241;DHT22;7723;52.170;9.978;2023-03-21T03:20:18;8.30;99.90
15241;DHT22;7723;52.170;9.978;2023-03-21T03:22:53;8.30;99.90
15241;DHT22;7723;52.170;9.978;2023-03-21T03:25:27;8.30;99.90
15241;DHT22;7723;52.170;9.978;2023-03-21T03:27:57;8.30;99.90
15241;DHT22;7723;52.170;9.978;2023-03-21T03:30:26;8.30;99.90
15241;DHT22;7723;52.170;9.978;2023-03-21T03:32:57;8.30;99.90
15241;DHT22;7723;52.170;9.978;2023-03-21T03:35:27;8.30;99.90
15241;DHT22;7723;52.170;9.978;2023-03-21T03:37:56;8.30;99.90
15241;DHT22;7723;52.170;9.978;2023-03-21T03:40:28;8.30;99.90
15241;DHT22;7723;52.170;9.978;2023-03-21T03:42:58;8.30;99.90
15241;DHT22;7723;52.170;9.978;2023-03-21T03:45:30;8.40;99.90
15241;DHT22;7723;52.170;9.978;2023-03-21T03:48:04;8.30;99.90
15241;DHT22;7723;52.170;9.978;2023-03-21T03:50:37;8.40;99.90
15241;DHT22;7723;52.170;9.978;2023-03-21T03:53:09;8.30;99.90
15241;DHT22;7723;52.170;9.978;2023-03-21T03:55:40;8.30;99.90
15241;DHT22;7723;52.170;9.978;2023-03-21T03:58:08;8.30;99.90
15241;DHT22;7723;52.170;9.978;2023-03-21T04:00:36;8.30;99.90
15241;DHT22;7723;52.170;9.978;2023-03-21T04:03:03;8.30;99.90
15241;DHT22;7723;52.170;9.978;2023-03-21T04:05:31;8.30;99.90
15241;DHT22;7723;52.170;9.978;2023-03-21T04:07:58;8.30;99.90
15241;DHT22;7723;52.170;9.978;2023-03-21T04:10:25;8.30;99.90
15241;DHT22;7723;52.170;9.978;2023-03-21T04:12:54;8.30;99.90
15241;DHT22;7723;52.170;9.978;2023-03-21T04:15:21;8.30;99.90
15241;DHT22;7723;52.170;9.978;2023-03-21T04:17:49;8.20;99.90
15241;DHT22;7723;52.170;9.978;2023-03-21T04:20:16;8.20;99.90
15241;DHT22;7723;52.170;9.978;2023-03-21T04:22:43;8.20;99.90
15241;DHT22;7723;52.170;9.978;2023-03-21T04:25:11;8.20;99.90
15241;DHT22;7723;52.170;9.978;2023-03-21T04:27:38;8.20;99.90
15241;DHT22;7723;52.170;9.978;2023-03-21T04:30:08;8.20;99.90
15241;DHT22;7723;52.170;9.978;2023-03-21T04:32:36;8.20;99.90
15241;DHT22;7723;52.170;9.978;2023-03-21T04:35:05;8.10;99.90
15241;DHT22;7723;52.170;9.978;2023-03-21T04:37:33;8.20;99.90
15241;DHT22;7723;52.170;9.978;2023-03-21T04:40:01;8.20;99.90
15241;DHT22;7723;52.170;9.978;2023-03-21T04:42:32;8.20;99.90
15241;DHT22;7723;52.170;9.978;2023-03-21T04:45:00;8.20;99.90
15241;DHT22;7723;52.170;9.978;2023-03-21T04:47:29;8.20;99.90
15241;DHT22;7723;52.170;9.978;2023-03-21T04:49:56;8.10;99.90
15241;DHT22;7723;52.170;9.978;2023-03-21T04:52:23;8.20;99.90
15241;DHT22;7723;52.170;9.978;2023-03-21T04:54:50;8.20;99.90
15241;DHT22;7723;52.170;9.978;2023-03-21T04:57:17;8.20;99.90
15241;DHT22;7723;52.170;9.978;2023-03-21T04:59:44;8.20;99.90
15241;DHT22;7723;52.170;9.978;2023-03-21T05:02:12;8.20;99.90
15241;DHT22;7723;52.170;9.978;2023-03-21T05:04:41;8.20;99.90
15241;DHT22;7723;52.170;9.978;2023-03-21T05:07:08;8.20;99.90
15241;DHT22;7723;52.170;9.978;2023-03-21T05:09:35;8.20;99.90
15241;DHT22;7723;52.170;9.978;2023-03-21T05:12:03;8.20;99.90
15241;DHT22;7723;52.170;9.978;2023-03-21T05:14:30;8.20;99.90
15241;DHT22;7723;52.170;9.978;2023-03-21T05:16:59;8.20;99.90
15241;DHT22;7723;52.170;9.978;2023-03-21T05:19:30;8.20;99.90
15241;DHT22;7723;52.170;9.978;2023-03-21T05:22:03;8.20;99.90
15241;DHT22;7723;52.170;9.978;2023-03-21T05:24:35;8.20;99.90
15241;DHT22;7723;52.170;9.978;2023-03-21T05:27:04;8.20;99.90
15241;DHT22;7723;52.170;9.978;2023-03-21T05:29:31;8.20;99.90
15241;DHT22;7723;52.170;9.978;2023-03-21T05:31:59;8.20;99.90
15241;DHT22;7723;52.170;9.978;2023-03-21T05:34:27;8.20;99.90
15241;DHT22;7723;52.170;9.978;2023-03-21T05:36:54;8.20;99.90
15241;DHT22;7723;52.170;9.978;2023-03-21T05:39:22;8.30;99.90
15241;DHT22;7723;52.170;9.978;2023-03-21T05:41:50;8.20;99.90
15241;DHT22;7723;52.170;9.978;2023-03-21T05:44:17;8.30;99.90
15241;DHT22;7723;52.170;9.978;2023-03-21T05:46:44;8.30;99.90
15241;DHT22;7723;52.170;9.978;2023-03-21T05:49:11;8.30;99.90
15241;DHT22;7723;52.170;9.978;2023-03-21T05:51:38;8.30;99.90
15241;DHT22;7723;52.170;9.978;2023-03-21T05:54:05;8.30;99.90
15241;DHT22;7723;52.170;9.978;2023-03-21T05:56:34;8.30;99.90
15241;DHT22;7723;52.170;9.978;2023-03-21T05:59:01;8.30;99.90
15241;DHT22;7723;52.170;9.978;2023-03-21T06:01:28;8.40;99.90
15241;DHT22;7723;52.170;9.978;2023-03-21T06:03:55;8.40;99.90
15241;DHT22;7723;52.170;9.978;2023-03-21T06:06:22;8.40;99.90
15241;DHT22;7723;52.170;9.978;2023-03-21T06:08:49;8.40;99.90
15241;DHT22;7723;52.170;9.978;2023-03-21T06:11:22;8.40;99.90
15241;DHT22;7723;52.170;9.978;2023-03-21T06:13:51;8.50;99.90
15241;DHT22;7723;52.170;9.978;2023-03-21T06:16:19;8.60;99.90
15241;DHT22;7723;52.170;9.978;2023-03-21T06:18:46;8.60;99.90
15241;DHT22;7723;52.170;9.978;2023-03-21T06:21:13;8.60;99.90
15241;DHT22;7723;52.170;9.978;2023-03-21T06:23:40;8.60;99.90
15241;DHT22;7723;52.170;9.978;2023-03-21T06:26:07;8.70;99.90
15241;DHT22;7723;52.170;9.978;2023-03-21T06:28:35;8.70;99.90
15241;DHT22;7723;52.170;9.978;2023-03-21T06:31:04;8.70;99.90
15241;DHT22;7723;52.170;9.978;2023-03-21T06:33:31;8.70;99.90
15241;DHT22;7723;52.170;9.978;2023-03-21T06:35:58;8.70;99.90
15241;DHT22;7723;52.170;9.978;2023-03-21T06:38:25;8.70;99.90
15241;DHT22;7723;52.170;9.978;2023-03-21T06:40:52;8.80;99.90
15241;DHT22;7723;52.170;9.978;2023-03-21T06:43:20;8.80;99.90
15241;DHT22;7723;52.170;9.978;2023-03-21T06:45:47;8.80;99.90
15241;DHT22;7723;52.170;9.978;2023-03-21T06:48:15;8.80;99.90
15241;DHT22;7723;52.170;9.978;2023-03-21T06:50:42;8.90;99.90
15241;DHT22;7723;52.170;9.978;2023-03-21T06:53:09;8.90;99.90
15241;DHT22;7723;52.170;9.978;2023-03-21T06:55:37;8.90;99.90
15241;DHT22;7723;52.170;9.978;2023-03-21T06:58:04;8.90;99.90
15241;DHT22;7723;52.170;9.978;2023-03-21T07:00:31;8.90;99.90
15241;DHT22;7723;52.170;9.978;2023-03-21T07:02:58;9.00;99.90
15241;DHT22;7723;52.170;9.978;2023-03-21T07:05:27;9.00;99.90
15241;DHT22;7723;52.170;9.978;2023-03-21T07:07:55;9.00;99.90
15241;DHT22;7723;52.170;9.978;2023-03-21T07:10:22;9.10;99.90
15241;DHT22;7723;52.170;9.978;2023-03-21T07:12:49;9.10;99.90
15241;DHT22;7723;52.170;9.978;2023-03-21T07:15:16;9.20;99.90
15241;DHT22;7723;52.170;9.978;2023-03-21T07:17:44;9.20;99.90
15241;DHT22;7723;52.170;9.978;2023-03-21T07:20:11;9.20;99.90
15241;DHT22;7723;52.170;9.978;2023-03-21T07:22:40;9.20;99.90
15241;DHT22;7723;52.170;9.978;2023-03-21T07:25:08;9.30;99.90
15241;DHT22;7723;52.170;9.978;2023-03-21T07:27:35;9.30;99.90
15241;DHT22;7723;52.170;9.978;2023-03-21T07:30:02;9.40;99.90
15241;DHT22;7723;52.170;9.978;2023-03-21T07:32:31;9.40;99.90
15241;DHT22;7723;52.170;9.978;2023-03-21T07:34:59;9.40;99.90
15241;DHT22;7723;52.170;9.978;2023-03-21T07:37:26;9.50;99.90
15241;DHT22;7723;52.170;9.978;2023-03-21T07:39:55;9.50;99.90
15241;DHT22;7723;52.170;9.978;2023-03-21T07:42:22;9.60;99.90
15241;DHT22;7723;52.170;9.978;2023-03-21T07:44:49;9.70;99.90
15241;DHT22;7723;52.170;9.978;2023-03-21T07:47:19;9.70;99.90
15241;DHT22;7723;52.170;9.978;2023-03-21T07:49:46;9.60;99.90
15241;DHT22;7723;52.170;9.978;2023-03-21T07:52:13;9.60;99.90
15241;DHT22;7723;52.170;9.978;2023-03-21T07:54:41;9.60;99.90
15241;DHT22;7723;52.170;9.978;2023-03-21T07:57:09;9.70;99.90
15241;DHT22;7723;52.170;9.978;2023-03-21T07:59:36;9.70;99.90
15241;DHT22;7723;52.170;9.978;2023-03-21T08:02:03;9.80;99.90
15241;DHT22;7723;52.170;9.978;2023-03-21T08:06:59;9.90;99.90
15241;DHT22;7723;52.170;9.978;2023-03-21T08:09:26;10.00;99.90
15241;DHT22;7723;52.170;9.978;2023-03-21T08:11:53;10.00;99.90
15241;DHT22;7723;52.170;9.978;2023-03-21T08:14:22;10.20;99.90
15241;DHT22;7723;52.170;9.978;2023-03-21T08:16:49;10.30;99.90
15241;DHT22;7723;52.170;9.978;2023-03-21T08:19:16;10.40;99.90
15241;DHT22;7723;52.170;9.978;2023-03-21T08:21:45;10.50;99.90
15241;DHT22;7723;52.170;9.978;2023-03-21T08:24:12;10.60;99.90
15241;DHT22;7723;52.170;9.978;2023-03-21T08:26:40;10.70;99.90
15241;DHT22;7723;52.170;9.978;2023-03-21T08:29:08;10.60;99.90
15241;DHT22;7723;52.170;9.978;2023-03-21T08:31:38;10.60;99.90
15241;DHT22;7723;52.170;9.978;2023-03-21T08:34:05;10.60;99.90
15241;DHT22;7723;52.170;9.978;2023-03-21T08:36:33;10.70;99.90
15241;DHT22;7723;52.170;9.978;2023-03-21T08:39:01;10.90;99.90
15241;DHT22;7723;52.170;9.978;2023-03-21T08:41:30;11.00;99.90
15241;DHT22;7723;52.170;9.978;2023-03-21T08:43:57;11.10;99.90
15241;DHT22;7723;52.170;9.978;2023-03-21T08:46:24;11.10;99.90
15241;DHT22;7723;52.170;9.978;2023-03-21T08:48:53;11.10;99.90
15241;DHT22;7723;52.170;9.978;2023-03-21T08:51:20;11.30;99.90
15241;DHT22;7723;52.170;9.978;2023-03-21T08:53:47;11.30;99.90
15241;DHT22;7723;52.170;9.978;2023-03-21T08:56:15;11.40;99.90
15241;DHT22;7723;52.170;9.978;2023-03-21T08:58:42;11.40;99.90
15241;DHT22;7723;52.170;9.978;2023-03-21T09:01:10;11.60;99.90
15241;DHT22;7723;52.170;9.978;2023-03-21T09:03:40;11.70;99.90
15241;DHT22;7723;52.170;9.978;2023-03-21T09:06:09;11.60;99.90
15241;DHT22;7723;52.170;9.978;2023-03-21T09:08:39;11.70;99.90
15241;DHT22;7723;52.170;9.978;2023-03-21T09:11:07;11.60;99.90
15241;DHT22;7723;52.170;9.978;2023-03-21T09:13:34;11.70;99.90
15241;DHT22;7723;52.170;9.978;2023-03-21T09:16:01;11.90;99.90
15241;DHT22;7723;52.170;9.978;2023-03-21T09:18:29;12.00;99.90
15241;DHT22;7723;52.170;9.978;2023-03-21T09:21:14;11.90;99.90
15241;DHT22;7723;52.170;9.978;2023-03-21T09:23:42;12.90;99.90
15241;DHT22;7723;52.170;9.978;2023-03-21T09:26:09;11.80;99.90
15241;DHT22;7723;52.170;9.978;2023-03-21T09:28:38;11.80;99.90
15241;DHT22;7723;52.170;9.978;2023-03-21T09:31:06;11.80;99.90
15241;DHT22;7723;52.170;9.978;2023-03-21T09:33:35;11.80;99.90
15241;DHT22;7723;52.170;9.978;2023-03-21T09:36:03;11.80;99.90
15241;DHT22;7723;52.170;9.978;2023-03-21T09:38:38;11.80;99.90
15241;DHT22;7723;52.170;9.978;2023-03-21T09:41:19;12.10;99.90
15241;DHT22;7723;52.170;9.978;2023-03-21T09:43:59;12.40;99.90
15241;DHT22;7723;52.170;9.978;2023-03-21T09:46:37;12.60;99.90
15241;DHT22;7723;52.170;9.978;2023-03-21T09:49:10;12.80;99.90
15241;DHT22;7723;52.170;9.978;2023-03-21T09:51:44;13.10;99.90
15241;DHT22;7723;52.170;9.978;2023-03-21T09:54:19;13.30;99.90
15241;DHT22;7723;52.170;9.978;2023-03-21T09:56:48;13.30;99.90
15241;DHT22;7723;52.170;9.978;2023-03-21T09:59:21;13.20;99.90
15241;DHT22;7723;52.170;9.978;2023-03-21T10:01:50;13.30;99.90
15241;DHT22;7723;52.170;9.978;2023-03-21T10:04:17;13.40;99.90
15241;DHT22;7723;52.170;9.978;2023-03-21T10:06:52;13.60;99.90
15241;DHT22;7723;52.170;9.978;2023-03-21T10:09:23;13.50;99.90
15241;DHT22;7723;52.170;9.978;2023-03-21T10:11:56;13.30;99.90
15241;DHT22;7723;52.170;9.978;2023-03-21T10:14:28;13.40;99.90
15241;DHT22;7723;52.170;9.978;2023-03-21T10:16:58;13.50;99.90
15241;DHT22;7723;52.170;9.978;2023-03-21T10:19:26;13.50;99.90
15241;DHT22;7723;52.170;9.978;2023-03-21T10:21:54;13.60;99.90
15241;DHT22;7723;52.170;9.978;2023-03-21T10:24:24;13.70;99.90
15241;DHT22;7723;52.170;9.978;2023-03-21T10:26:53;13.50;99.90
15241;DHT22;7723;52.170;9.978;2023-03-21T10:29:23;13.40;99.90
15241;DHT22;7723;52.170;9.978;2023-03-21T10:31:53;13.30;94.10
15241;DHT22;7723;52.170;9.978;2023-03-21T10:34:26;13.20;99.90
15241;DHT22;7723;52.170;9.978;2023-03-21T10:36:54;13.10;99.90
15241;DHT22;7723;52.170;9.978;2023-03-21T10:39:26;13.00;97.50
15241;DHT22;7723;52.170;9.978;2023-03-21T10:41:56;12.90;99.90
15241;DHT22;7723;52.170;9.978;2023-03-21T10:44:29;12.80;99.90
15241;DHT22;7723;52.170;9.978;2023-03-21T10:46:57;12.80;99.90
15241;DHT22;7723;52.170;9.978;2023-03-21T10:49:25;12.70;99.90
15241;DHT22;7723;52.170;9.978;2023-03-21T10:51:57;12.60;99.90
15241;DHT22;7723;52.170;9.978;2023-03-21T10:54:28;12.60;99.90
15241;DHT22;7723;52.170;9.978;2023-03-21T10:56:59;12.50;99.90
15241;DHT22;7723;52.170;9.978;2023-03-21T10:59:35;12.50;99.90
15241;DHT22;7723;52.170;9.978;2023-03-21T11:02:04;12.50;99.90
15241;DHT22;7723;52.170;9.978;2023-03-21T11:04:32;12.30;99.90
15241;DHT22;7723;52.170;9.978;2023-03-21T11:07:04;12.20;99.90
15241;DHT22;7723;52.170;9.978;2023-03-21T11:09:45;12.20;99.90
15241;DHT22;7723;52.170;9.978;2023-03-21T11:12:14;12.30;99.90
15241;DHT22;7723;52.170;9.978;2023-03-21T11:14:43;12.30;99.90
15241;DHT22;7723;52.170;9.978;2023-03-21T11:17:22;12.30;99.90
15241;DHT22;7723;52.170;9.978;2023-03-21T11:19:51;12.10;99.90
15241;DHT22;7723;52.170;9.978;2023-03-21T11:22:19;12.10;99.90
15241;DHT22;7723;52.170;9.978;2023-03-21T11:24:51;12.00;99.90
15241;DHT22;7723;52.170;9.978;2023-03-21T11:27:18;12.00;99.90
15241;DHT22;7723;52.170;9.978;2023-03-21T11:29:48;12.10;99.90
15241;DHT22;7723;52.170;9.978;2023-03-21T11:32:21;12.20;99.90
15241;DHT22;7723;52.170;9.978;2023-03-21T11:34:50;12.30;99.90
15241;DHT22;7723;52.170;9.978;2023-03-21T11:37:24;12.30;99.90
15241;DHT22;7723;52.170;9.978;2023-03-21T11:39:56;12.30;99.90
15241;DHT22;7723;52.170;9.978;2023-03-21T11:42:32;12.40;99.90
15241;DHT22;7723;52.170;9.978;2023-03-21T11:45:13;12.40;99.90
15241;DHT22;7723;52.170;9.978;2023-03-21T11:47:41;12.40;99.90
15241;DHT22;7723;52.170;9.978;2023-03-21T11:50:19;12.40;99.90
15241;DHT22;7723;52.170;9.978;2023-03-21T11:52:57;12.30;99.90
15241;DHT22;7723;52.170;9.978;2023-03-21T11:55:38;12.20;99.90
15241;DHT22;7723;52.170;9.978;2023-03-21T11:58:20;12.30;99.90
15241;DHT22;7723;52.170;9.978;2023-03-21T12:00:59;12.30;99.90
15241;DHT22;7723;52.170;9.978;2023-03-21T12:03:45;12.30;99.90
15241;DHT22;7723;52.170;9.978;2023-03-21T12:06:20;12.40;99.90
15241;DHT22;7723;52.170;9.978;2023-03-21T12:08:55;12.30;99.90
15241;DHT22;7723;52.170;9.978;2023-03-21T12:11:31;12.30;99.90
15241;DHT22;7723;52.170;9.978;2023-03-21T12:14:07;12.40;99.90
15241;DHT22;7723;52.170;9.978;2023-03-21T12:16:53;12.30;99.90
15241;DHT22;7723;52.170;9.978;2023-03-21T12:19:52;12.30;99.90
15241;DHT22;7723;52.170;9.978;2023-03-21T12:22:29;12.30;99.90
15241;DHT22;7723;52.170;9.978;2023-03-21T12:25:04;12.10;99.90
15241;DHT22;7723;52.170;9.978;2023-03-21T12:27:42;12.20;99.90
15241;DHT22;7723;52.170;9.978;2023-03-21T12:30:21;12.20;99.90
15241;DHT22;7723;52.170;9.978;2023-03-21T12:33:02;12.00;99.90
15241;DHT22;7723;52.170;9.978;2023-03-21T12:35:41;11.90;99.90
15241;DHT22;7723;52.170;9.978;2023-03-21T12:38:15;12.00;99.90
15241;DHT22;7723;52.170;9.978;2023-03-21T12:40:54;12.20;99.90
15241;DHT22;7723;52.170;9.978;2023-03-21T12:43:32;12.00;99.90
15241;DHT22;7723;52.170;9.978;2023-03-21T12:46:08;11.90;99.90
15241;DHT22;7723;52.170;9.978;2023-03-21T12:48:41;12.00;99.90
15241;DHT22;7723;52.170;9.978;2023-03-21T12:51:12;11.90;99.90
15241;DHT22;7723;52.170;9.978;2023-03-21T12:53:49;11.90;99.90
15241;DHT22;7723;52.170;9.978;2023-03-21T12:56:21;12.00;99.90
15241;DHT22;7723;52.170;9.978;2023-03-21T12:58:55;12.00;99.90
15241;DHT22;7723;52.170;9.978;2023-03-21T13:01:23;11.90;99.90
15241;DHT22;7723;52.170;9.978;2023-03-21T13:04:03;11.80;99.90
15241;DHT22;7723;52.170;9.978;2023-03-21T13:06:34;11.80;99.90
15241;DHT22;7723;52.170;9.978;2023-03-21T13:09:08;11.70;99.90
15241;DHT22;7723;52.170;9.978;2023-03-21T13:11:37;11.70;99.90
15241;DHT22;7723;52.170;9.978;2023-03-21T13:14:10;11.70;99.90
15241;DHT22;7723;52.170;9.978;2023-03-21T13:16:40;11.60;99.90
15241;DHT22;7723;52.170;9.978;2023-03-21T13:19:16;11.60;99.90
15241;DHT22;7723;52.170;9.978;2023-03-21T13:21:50;11.70;99.90
15241;DHT22;7723;52.170;9.978;2023-03-21T13:24:27;11.80;99.90
15241;DHT22;7723;52.170;9.978;2023-03-21T13:27:00;11.70;99.90
15241;DHT22;7723;52.170;9.978;2023-03-21T13:29:32;11.70;99.90
15241;DHT22;7723;52.170;9.978;2023-03-21T13:32:07;11.70;99.90
15241;DHT22;7723;52.170;9.978;2023-03-21T13:34:38;11.70;99.90
15241;DHT22;7723;52.170;9.978;2023-03-21T13:37:14;11.70;99.90
15241;DHT22;7723;52.170;9.978;2023-03-21T13:39:43;11.70;99.90
15241;DHT22;7723;52.170;9.978;2023-03-21T13:42:19;11.80;99.90
15241;DHT22;7723;52.170;9.978;2023-03-21T13:44:52;11.70;99.90
15241;DHT22;7723;52.170;9.978;2023-03-21T13:47:38;11.80;99.90
15241;DHT22;7723;52.170;9.978;2023-03-21T13:50:24;11.80;99.90
15241;DHT22;7723;52.170;9.978;2023-03-21T13:53:15;11.90;99.90
15241;DHT22;7723;52.170;9.978;2023-03-21T13:55:45;11.80;99.90
15241;DHT22;7723;52.170;9.978;2023-03-21T13:58:22;11.70;99.90
15241;DHT22;7723;52.170;9.978;2023-03-21T14:03:48;11.70;99.90
15241;DHT22;7723;52.170;9.978;2023-03-21T14:06:17;11.70;99.90
15241;DHT22;7723;52.170;9.978;2023-03-21T14:08:46;11.70;99.90
15241;DHT22;7723;52.170;9.978;2023-03-21T14:11:16;11.60;99.90
15241;DHT22;7723;52.170;9.978;2023-03-21T14:13:45;11.60;99.90
15241;DHT22;7723;52.170;9.978;2023-03-21T14:16:15;11.60;99.90
15241;DHT22;7723;52.170;9.978;2023-03-21T14:18:44;11.60;99.90
15241;DHT22;7723;52.170;9.978;2023-03-21T14:21:18;11.60;99.90
15241;DHT22;7723;52.170;9.978;2023-03-21T14:23:45;11.50;99.90
15241;DHT22;7723;52.170;9.978;2023-03-21T14:26:13;11.50;99.90
15241;DHT22;7723;52.170;9.978;2023-03-21T14:28:48;11.50;99.90
15241;DHT22;7723;52.170;9.978;2023-03-21T14:31:18;11.50;99.90
15241;DHT22;7723;52.170;9.978;2023-03-21T14:33:49;11.40;99.90
15241;DHT22;7723;52.170;9.978;2023-03-21T14:36:21;11.40;99.90
15241;DHT22;7723;52.170;9.978;2023-03-21T14:39:03;11.40;99.90
15241;DHT22;7723;52.170;9.978;2023-03-21T14:41:31;11.40;99.90
15241;DHT22;7723;52.170;9.978;2023-03-21T14:44:11;11.20;99.90
15241;DHT22;7723;52.170;9.978;2023-03-21T14:46:41;11.20;99.90
15241;DHT22;7723;52.170;9.978;2023-03-21T14:49:22;11.20;99.90
15241;DHT22;7723;52.170;9.978;2023-03-21T14:51:52;11.10;99.90
15241;DHT22;7723;52.170;9.978;2023-03-21T14:54:21;11.10;99.90
15241;DHT22;7723;52.170;9.978;2023-03-21T14:56:52;11.10;99.90
15241;DHT22;7723;52.170;9.978;2023-03-21T14:59:21;11.00;99.90
15241;DHT22;7723;52.170;9.978;2023-03-21T15:01:52;11.10;99.90
15241;DHT22;7723;52.170;9.978;2023-03-21T15:04:20;11.10;99.90
15241;DHT22;7723;52.170;9.978;2023-03-21T15:06:49;11.10;99.90
15241;DHT22;7723;52.170;9.978;2023-03-21T15:09:17;11.10;99.90
15241;DHT22;7723;52.170;9.978;2023-03-21T15:11:50;11.20;99.90
15241;DHT22;7723;52.170;9.978;2023-03-21T15:14:20;11.20;99.90
15241;DHT22;7723;52.170;9.978;2023-03-21T15:16:50;11.30;99.90
15241;DHT22;7723;52.170;9.978;2023-03-21T15:19:23;11.30;99.90
15241;DHT22;7723;52.170;9.978;2023-03-21T15:21:57;11.30;99.90
15241;DHT22;7723;52.170;9.978;2023-03-21T15:24:27;11.30;99.90
15241;DHT22;7723;52.170;9.978;2023-03-21T15:26:59;11.30;99.90
15241;DHT22;7723;52.170;9.978;2023-03-21T15:29:26;11.10;99.90
15241;DHT22;7723;52.170;9.978;2023-03-21T15:31:55;11.20;99.90
15241;DHT22;7723;52.170;9.978;2023-03-21T15:34:26;11.10;99.90
15241;DHT22;7723;52.170;9.978;2023-03-21T15:36:57;11.10;99.90
15241;DHT22;7723;52.170;9.978;2023-03-21T15:39:28;11.00;99.90
15241;DHT22;7723;52.170;9.978;2023-03-21T15:41:57;11.00;99.90
15241;DHT22;7723;52.170;9.978;2023-03-21T15:44:25;11.10;99.90
15241;DHT22;7723;52.170;9.978;2023-03-21T15:46:54;10.90;99.90
15241;DHT22;7723;52.170;9.978;2023-03-21T15:49:25;11.00;99.90
15241;DHT22;7723;52.170;9.978;2023-03-21T15:51:57;10.90;99.90
15241;DHT22;7723;52.170;9.978;2023-03-21T15:54:26;10.90;99.90
15241;DHT22;7723;52.170;9.978;2023-03-21T15:56:56;10.90;99.90
15241;DHT22;7723;52.170;9.978;2023-03-21T15:59:29;10.80;99.90
15241;DHT22;7723;52.170;9.978;2023-03-21T16:01:59;10.90;99.90
15241;DHT22;7723;52.170;9.978;2023-03-21T16:04:26;10.80;99.90
15241;DHT22;7723;52.170;9.978;2023-03-21T16:07:01;10.90;99.90
15241;DHT22;7723;52.170;9.978;2023-03-21T16:09:38;10.90;99.90
15241;DHT22;7723;52.170;9.978;2023-03-21T16:12:10;10.90;99.90
15241;DHT22;7723;52.170;9.978;2023-03-21T16:14:38;10.90;99.90
15241;DHT22;7723;52.170;9.978;2023-03-21T16:17:25;10.90;99.90
15241;DHT22;7723;52.170;9.978;2023-03-21T16:19:53;10.90;99.90
15241;DHT22;7723;52.170;9.978;2023-03-21T16:22:20;10.90;99.90
15241;DHT22;7723;52.170;9.978;2023-03-21T16:24:47;10.90;99.90